createdAt,value
2023-05-17T07:00:46.323Z,16.05
2023-05-17T07:03:49.338Z,16.00
2023-05-17T07:06:51.909Z,16.06
2023-05-17T07:09:54.639Z,16.15
2023-05-17T07:12:57.071Z,16.50
2023-05-17T07:16:01.092Z,16.62
2023-05-17T07:19:03.324Z,16.59
2023-05-17T07:22:06.068Z,16.48
2023-05-17T07:25:09.560Z,16.59
2023-05-17T07:28:12.265Z,16.93
2023-05-17T07:31:16.725Z,17.08
2023-05-17T07:34:19.506Z,16.95
2023-05-17T07:37:22.844Z,17.03
2023-05-17T07:40:25.445Z,16.91
2023-05-17T07:43:27.843Z,16.86
2023-05-17T07:46:31.935Z,16.96
2023-05-17T07:49:34.422Z,17.27
2023-05-17T07:52:37.121Z,17.17
2023-05-17T07:55:39.586Z,17.15
2023-05-17T07:58:42.284Z,17.17
2023-05-17T08:01:46.068Z,17.46
2023-05-17T08:04:48.818Z,17.24
2023-05-17T08:07:52.222Z,17.17
2023-05-17T08:10:54.683Z,17.06
2023-05-17T08:13:57.118Z,17.07
2023-05-17T08:17:01.134Z,17.13
2023-05-17T08:20:03.498Z,17.18
2023-05-17T08:23:06.181Z,17.01
2023-05-17T08:26:08.696Z,17.01
2023-05-17T08:29:11.542Z,16.91
2023-05-17T08:32:15.297Z,17.04
2023-05-17T08:35:18.178Z,17.37
2023-05-17T08:38:20.869Z,17.74
2023-05-17T08:41:23.661Z,17.92
2023-05-17T08:44:27.138Z,17.29
2023-05-17T08:47:33.990Z,17.22
2023-05-17T08:50:37.553Z,17.62
2023-05-17T08:53:42.613Z,17.67
2023-05-17T08:56:45.153Z,17.78
2023-05-17T08:59:47.936Z,18.10
2023-05-17T09:02:51.865Z,18.69
2023-05-17T09:05:54.798Z,18.80
2023-05-17T09:08:58.407Z,18.70
2023-05-17T09:12:04.211Z,18.43
2023-05-17T09:15:14.941Z,18.63
2023-05-17T09:18:19.652Z,18.79
2023-05-17T09:21:23.228Z,18.39
2023-05-17T09:24:29.650Z,18.33
2023-05-17T09:27:34.734Z,18.72
2023-05-17T09:30:39.479Z,19.06
2023-05-17T09:33:46.872Z,19.67
2023-05-17T09:36:49.672Z,19.07
2023-05-17T09:39:52.116Z,18.94
2023-05-17T09:42:55.025Z,19.26
2023-05-17T09:45:57.947Z,19.19
2023-05-17T09:49:03.441Z,19.21
2023-05-17T09:52:07.824Z,19.35
2023-05-17T09:55:11.829Z,19.24
2023-05-17T09:58:14.286Z,19.11
2023-05-17T10:01:17.055Z,18.94
2023-05-17T10:04:23.252Z,18.98
2023-05-17T10:07:26.356Z,19.28
2023-05-17T10:10:29.094Z,19.23
2023-05-17T10:13:34.593Z,19.61
2023-05-17T10:16:37.820Z,19.87
2023-05-17T10:19:41.985Z,20.15
2023-05-17T10:22:44.873Z,19.93
2023-05-17T10:25:47.338Z,19.85
2023-05-17T10:28:52.181Z,19.70
2023-05-17T10:31:54.592Z,19.72
2023-05-17T10:35:10.570Z,19.79
2023-05-17T10:38:14.617Z,19.99
2023-05-17T10:41:17.404Z,19.83
2023-05-17T10:44:19.906Z,20.24
2023-05-17T10:47:23.024Z,20.28
2023-05-17T10:50:27.339Z,20.92
2023-05-17T10:53:30.767Z,20.59
2023-05-17T10:56:33.921Z,20.20
2023-05-17T10:59:36.665Z,19.88
2023-05-17T11:02:40.366Z,19.64
2023-05-17T11:05:45.411Z,19.74
2023-05-17T11:09:08.014Z,19.88
2023-05-17T11:12:11.751Z,20.18
2023-05-17T11:15:15.201Z,20.39
2023-05-17T11:18:29.528Z,20.72
2023-05-17T11:21:35.488Z,20.29
2023-05-17T11:24:38.183Z,20.08
2023-05-17T11:27:45.176Z,19.82
2023-05-17T11:30:52.061Z,19.61
2023-05-17T11:33:55.164Z,19.56
2023-05-17T11:36:59.887Z,19.80
2023-05-17T11:40:09.005Z,19.79
2023-05-17T11:43:16.012Z,19.78
2023-05-17T11:46:20.391Z,19.74
2023-05-17T11:49:34.312Z,19.80
2023-05-17T11:52:40.564Z,20.00
2023-05-17T11:55:45.004Z,20.23
2023-05-17T11:58:47.883Z,20.62
2023-05-17T12:01:51.056Z,20.28
2023-05-17T12:04:53.858Z,20.19
2023-05-17T12:07:57.863Z,20.14
2023-05-17T12:11:00.645Z,20.19
2023-05-17T12:14:03.111Z,19.93
2023-05-17T12:17:08.124Z,19.79
2023-05-17T12:20:11.099Z,19.78
2023-05-17T12:23:15.183Z,19.87
2023-05-17T12:26:18.052Z,19.76
2023-05-17T12:29:23.100Z,19.67
2023-05-17T12:32:25.799Z,19.50
2023-05-17T12:35:29.310Z,19.85
2023-05-17T12:38:33.381Z,19.86
2023-05-17T12:41:36.143Z,20.08
2023-05-17T12:44:38.621Z,20.26
2023-05-17T12:47:41.390Z,20.44
2023-05-17T12:50:49.045Z,20.72
2023-05-17T12:53:53.759Z,20.29
2023-05-17T12:56:56.666Z,20.02
2023-05-17T13:00:02.840Z,20.07
2023-05-17T13:03:09.771Z,20.40
2023-05-17T13:06:12.560Z,20.24
2023-05-17T13:09:18.330Z,20.21
2023-05-17T13:12:22.221Z,19.90
2023-05-17T13:15:30.788Z,20.04
2023-05-17T13:18:47.817Z,20.02
2023-05-17T13:21:50.593Z,19.93
2023-05-17T13:24:55.124Z,19.89
2023-05-17T13:27:57.639Z,19.77
2023-05-17T13:31:00.383Z,19.68
2023-05-17T13:34:02.946Z,19.84
2023-05-17T13:37:08.627Z,19.73
2023-05-17T13:40:15.219Z,19.84
2023-05-17T13:43:17.968Z,20.03
2023-05-17T13:46:20.491Z,19.92
2023-05-17T13:49:23.272Z,20.04
2023-05-17T13:52:25.691Z,19.98
2023-05-17T13:55:29.780Z,19.88
2023-05-17T13:58:32.259Z,20.19
2023-05-17T14:01:35.579Z,20.08
2023-05-17T14:04:38.462Z,20.26
2023-05-17T14:07:42.848Z,20.55
2023-05-17T14:10:46.941Z,20.21
2023-05-17T14:13:49.468Z,20.65
2023-05-17T14:16:52.180Z,20.49
2023-05-17T14:19:54.752Z,20.81
2023-05-17T14:22:57.618Z,20.92
2023-05-17T14:26:02.826Z,20.73
2023-05-17T14:29:06.318Z,21.00
2023-05-17T14:32:08.786Z,20.91
2023-05-17T14:35:11.695Z,20.68
2023-05-17T14:38:14.189Z,20.25
2023-05-17T14:41:18.540Z,20.39
2023-05-17T14:44:21.126Z,20.21
2023-05-17T14:47:23.882Z,20.16
2023-05-17T14:50:26.672Z,20.16
2023-05-17T14:53:29.600Z,19.91
2023-05-17T14:56:33.701Z,19.86
2023-05-17T14:59:36.659Z,19.74
2023-05-17T15:02:39.161Z,19.77
